Time;durP1;ratioP1;P1;durP2;ratioP2;P2;SDS_P1;SDS_P2;PMS_P1;PMS_P2;Temp;Humidity;BMP_temperature;BMP_pressure;BME280_temperature;BME280_humidity;BME280_pressure;Samples;Min_cycle;Max_cycle;Signal;HPM_P1;HPM_P2
2023/07/06 00:01:19;;;;;;;;;;;18.60;77.20;;;;;;4012189;29;20401;-48
2023/07/06 00:04:01;;;;;;;;;;;18.60;77.20;;;;;;4012073;29;19935;-49
2023/07/06 00:06:41;;;;;;;;;;;18.60;77.20;;;;;;4011643;29;19946;-47
2023/07/06 00:09:22;;;;;;;;;;;18.60;77.20;;;;;;4011900;29;20397;-51
2023/07/06 00:12:03;;;;;;;;;;;18.60;77.30;;;;;;4011315;29;19935;-52
2023/07/06 00:14:45;;;;;;;;;;;18.60;77.30;;;;;;3997609;29;20451;-49
2023/07/06 00:17:26;;;;;;;;;;;18.60;77.40;;;;;;4007263;29;20084;-51
2023/07/06 00:20:10;;;;;;;;;;;18.50;77.30;;;;;;4010756;29;19939;-48
2023/07/06 00:22:51;;;;;;;;;;;18.50;77.30;;;;;;4012077;29;19931;-49
2023/07/06 00:25:33;;;;;;;;;;;18.50;77.30;;;;;;4012485;29;20088;-50
2023/07/06 00:28:16;;;;;;;;;;;18.50;77.40;;;;;;3996838;29;19931;-48
2023/07/06 00:31:02;;;;;;;;;;;18.50;77.40;;;;;;3986589;29;19931;-50
2023/07/06 00:33:43;;;;;;;;;;;18.50;77.40;;;;;;3996645;29;20447;-48
2023/07/06 00:36:24;;;;;;;;;;;18.50;77.50;;;;;;3998909;29;20260;-51
2023/07/06 00:39:05;;;;;;;;;;;18.60;77.60;;;;;;4011643;29;19935;-51
2023/07/06 00:41:46;;;;;;;;;;;18.50;77.50;;;;;;4000630;29;19935;-50
2023/07/06 00:44:52;;;;;;;;;;;18.50;78.40;;;;;;4011998;29;20027;-50
2023/07/06 00:47:35;;;;;;;;;;;18.50;77.50;;;;;;4008055;29;19935;-50
2023/07/06 00:50:17;;;;;;;;;;;18.50;77.60;;;;;;4012140;29;20386;-50
2023/07/06 00:53:00;;;;;;;;;;;18.50;77.60;;;;;;4000574;29;20427;-48
2023/07/06 00:55:41;;;;;;;;;;;18.50;77.70;;;;;;4000073;29;20026;-51
2023/07/06 00:58:23;;;;;;;;;;;18.50;77.60;;;;;;3985212;29;19951;-51
2023/07/06 01:01:05;;;;;;;;;;;18.50;77.60;;;;;;3997563;29;19943;-48
2023/07/06 01:03:48;;;;;;;;;;;18.50;77.60;;;;;;3999502;29;19934;-49
2023/07/06 01:06:30;;;;;;;;;;;18.50;77.60;;;;;;3999946;29;19935;-52
2023/07/06 01:09:12;;;;;;;;;;;18.50;78.50;;;;;;4003280;29;19966;-48
2023/07/06 01:11:55;;;;;;;;;;;18.50;77.60;;;;;;4013815;29;20328;-47
2023/07/06 01:14:36;;;;;;;;;;;18.50;77.70;;;;;;4002948;29;19936;-50
2023/07/06 01:17:21;;;;;;;;;;;18.50;77.70;;;;;;4002284;29;19935;-48
2023/07/06 01:20:14;;;;;;;;;;;18.50;77.70;;;;;;3998781;29;19936;-51
2023/07/06 01:23:08;;;;;;;;;;;18.50;77.70;;;;;;3987122;29;19972;-47
2023/07/06 01:26:07;;;;;;;;;;;18.50;77.70;;;;;;4008755;29;20002;-45
2023/07/06 01:29:08;;;;;;;;;;;18.50;77.70;;;;;;4013887;29;19931;-46
2023/07/06 01:31:53;;;;;;;;;;;18.50;77.80;;;;;;4013899;29;19930;-50
2023/07/06 01:34:36;;;;;;;;;;;18.50;77.80;;;;;;4013801;29;19934;-48
2023/07/06 01:37:19;;;;;;;;;;;18.50;77.90;;;;;;4003210;29;20485;-51
2023/07/06 01:40:01;;;;;;;;;;;18.40;77.90;;;;;;4013877;29;19944;-45
2023/07/06 01:42:43;;;;;;;;;;;18.40;77.90;;;;;;4014491;29;19980;-48
2023/07/06 01:45:24;;;;;;;;;;;18.40;77.90;;;;;;4013974;29;19931;-47
2023/07/06 01:48:10;;;;;;;;;;;18.40;78.00;;;;;;4012537;29;19935;-47
2023/07/06 01:50:53;;;;;;;;;;;18.40;78.00;;;;;;4001620;29;19931;-45
2023/07/06 01:53:40;;;;;;;;;;;18.40;78.10;;;;;;4014410;29;19931;-45
2023/07/06 01:56:23;;;;;;;;;;;18.40;78.10;;;;;;4013603;29;19934;-51
2023/07/06 01:59:06;;;;;;;;;;;18.40;78.20;;;;;;3992728;29;20382;-48
2023/07/06 02:01:50;;;;;;;;;;;18.40;78.30;;;;;;3990917;29;20408;-47
2023/07/06 02:04:33;;;;;;;;;;;18.40;78.40;;;;;;4001760;29;20469;-46
2023/07/06 02:07:16;;;;;;;;;;;18.40;78.40;;;;;;4013978;29;20327;-49
2023/07/06 02:09:56;;;;;;;;;;;18.40;78.50;;;;;;4013819;29;20030;-46
2023/07/06 02:12:37;;;;;;;;;;;18.40;78.50;;;;;;4002213;29;19934;-47
2023/07/06 02:15:19;;;;;;;;;;;18.40;79.40;;;;;;4013744;29;20402;-45
2023/07/06 02:18:01;;;;;;;;;;;18.30;78.60;;;;;;4012855;29;19935;-47
2023/07/06 02:20:45;;;;;;;;;;;18.30;78.60;;;;;;4013663;29;19931;-46
2023/07/06 02:23:28;;;;;;;;;;;18.30;78.70;;;;;;4013617;29;20505;-45
2023/07/06 02:26:08;;;;;;;;;;;18.30;78.70;;;;;;4013427;29;19931;-46
2023/07/06 02:28:49;;;;;;;;;;;18.30;79.60;;;;;;4002126;29;19934;-46
2023/07/06 02:31:29;;;;;;;;;;;18.40;78.80;;;;;;4012831;29;20541;-49
2023/07/06 02:34:10;;;;;;;;;;;18.30;78.90;;;;;;4004705;29;20120;-46
2023/07/06 02:36:53;;;;;;;;;;;18.30;78.90;;;;;;3997525;29;20399;-47
2023/07/06 02:39:34;;;;;;;;;;;18.30;78.90;;;;;;3986727;29;19934;-50
2023/07/06 02:42:15;;;;;;;;;;;18.30;78.90;;;;;;4004102;29;19935;-46
2023/07/06 02:44:57;;;;;;;;;;;18.40;79.00;;;;;;4002292;29;19983;-46
2023/07/06 02:47:40;;;;;;;;;;;18.30;79.90;;;;;;4012903;29;19940;-46
2023/07/06 02:50:23;;;;;;;;;;;18.30;79.00;;;;;;4006026;29;19935;-46
2023/07/06 02:53:05;;;;;;;;;;;18.30;79.00;;;;;;3997727;29;19930;-47
2023/07/06 02:55:46;;;;;;;;;;;18.30;79.10;;;;;;4000689;29;19931;-48
2023/07/06 02:58:27;;;;;;;;;;;18.30;79.20;;;;;;4012583;29;19931;-50
2023/07/06 03:01:08;;;;;;;;;;;18.30;79.20;;;;;;4011942;29;20440;-50
2023/07/06 03:03:51;;;;;;;;;;;18.30;79.20;;;;;;4011809;29;20056;-48
2023/07/06 03:06:32;;;;;;;;;;;18.30;79.20;;;;;;4013021;29;20006;-49
2023/07/06 03:09:14;;;;;;;;;;;18.30;79.30;;;;;;4001399;29;20080;-47
2023/07/06 03:11:55;;;;;;;;;;;18.30;79.30;;;;;;4012823;29;19934;-46
2023/07/06 03:14:35;;;;;;;;;;;18.30;79.30;;;;;;4001758;29;19931;-45
2023/07/06 03:17:16;;;;;;;;;;;18.30;80.30;;;;;;4000533;29;20380;-47
2023/07/06 03:19:57;;;;;;;;;;;18.30;79.60;;;;;;4012804;29;19931;-48
2023/07/06 03:22:38;;;;;;;;;;;18.30;79.60;;;;;;4012549;29;20340;-46
2023/07/06 03:25:20;;;;;;;;;;;18.30;79.70;;;;;;4001310;29;19931;-48
2023/07/06 03:28:01;;;;;;;;;;;18.30;79.60;;;;;;4012772;29;20280;-48
2023/07/06 03:30:43;;;;;;;;;;;18.30;79.70;;;;;;4011178;29;20099;-48
2023/07/06 03:33:24;;;;;;;;;;;18.30;79.70;;;;;;3986198;29;19935;-48
2023/07/06 03:36:05;;;;;;;;;;;18.30;79.70;;;;;;3996834;29;20038;-50
2023/07/06 03:38:48;;;;;;;;;;;18.30;79.80;;;;;;3984670;29;20024;-44
2023/07/06 03:41:31;;;;;;;;;;;18.30;79.80;;;;;;3996348;29;19985;-45
2023/07/06 03:44:12;;;;;;;;;;;18.30;79.80;;;;;;4007809;29;19931;-50
2023/07/06 03:46:52;;;;;;;;;;;18.30;79.80;;;;;;4011849;29;20498;-46
2023/07/06 03:49:34;;;;;;;;;;;18.30;79.90;;;;;;4006591;29;19935;-46
2023/07/06 03:52:16;;;;;;;;;;;18.30;79.80;;;;;;3996631;29;19935;-45
2023/07/06 03:54:59;;;;;;;;;;;18.30;79.80;;;;;;3997349;29;19932;-47
2023/07/06 03:57:43;;;;;;;;;;;18.30;80.70;;;;;;3997093;29;19931;-48
2023/07/06 04:00:39;;;;;;;;;;;18.30;79.90;;;;;;4007318;29;19939;-46
2023/07/06 04:03:20;;;;;;;;;;;18.30;79.90;;;;;;4012456;29;19935;-45
2023/07/06 04:06:03;;;;;;;;;;;18.30;79.90;;;;;;4011986;29;20076;-47
2023/07/06 04:08:43;;;;;;;;;;;18.30;79.90;;;;;;4008257;29;19943;-49
2023/07/06 04:11:24;;;;;;;;;;;18.30;79.80;;;;;;3996451;29;19937;-46
2023/07/06 04:14:06;;;;;;;;;;;18.30;79.80;;;;;;3996447;29;20453;-48
2023/07/06 04:16:47;;;;;;;;;;;18.30;79.90;;;;;;3997278;29;19935;-48
2023/07/06 04:19:28;;;;;;;;;;;18.30;79.80;;;;;;4009861;29;19935;-46
2023/07/06 04:22:09;;;;;;;;;;;18.30;79.80;;;;;;4000214;29;19935;-50
2023/07/06 04:24:51;;;;;;;;;;;18.30;79.80;;;;;;4012375;29;19931;-50
2023/07/06 04:27:31;;;;;;;;;;;18.30;79.80;;;;;;4011449;29;20016;-46
2023/07/06 04:30:14;;;;;;;;;;;18.30;79.80;;;;;;3997124;29;20651;-47
2023/07/06 04:32:55;;;;;;;;;;;18.30;79.80;;;;;;3985483;29;19935;-53
2023/07/06 04:35:36;;;;;;;;;;;18.30;79.80;;;;;;3996110;29;20487;-50
2023/07/06 04:38:20;;;;;;;;;;;18.30;79.90;;;;;;4002524;29;20011;-50
2023/07/06 04:41:01;;;;;;;;;;;18.30;79.80;;;;;;4012186;29;19940;-47
2023/07/06 04:43:42;;;;;;;;;;;18.30;79.80;;;;;;4014563;29;20324;-51
2023/07/06 04:46:24;;;;;;;;;;;18.30;79.90;;;;;;4014041;29;19967;-46
2023/07/06 04:49:05;;;;;;;;;;;18.40;80.10;;;;;;4004777;29;20687;-44
2023/07/06 04:51:46;;;;;;;;;;;18.40;80.50;;;;;;3999887;29;19944;-45
2023/07/06 04:54:28;;;;;;;;;;;18.40;80.40;;;;;;3999293;29;19931;-46
2023/07/06 04:57:11;;;;;;;;;;;18.40;80.30;;;;;;4014210;29;20015;-46
2023/07/06 04:59:52;;;;;;;;;;;18.40;80.20;;;;;;4014977;29;20011;-45
2023/07/06 05:02:34;;;;;;;;;;;18.40;80.20;;;;;;4014883;29;20015;-46
2023/07/06 05:05:17;;;;;;;;;;;18.40;80.20;;;;;;4012908;29;20120;-47
2023/07/06 05:07:58;;;;;;;;;;;18.40;80.30;;;;;;4000603;29;19956;-46
2023/07/06 05:10:39;;;;;;;;;;;18.40;80.30;;;;;;3999706;29;19930;-48
2023/07/06 05:13:20;;;;;;;;;;;18.40;80.60;;;;;;3999673;29;19936;-46
2023/07/06 05:16:01;;;;;;;;;;;18.40;80.80;;;;;;4000873;29;19934;-46
2023/07/06 05:18:44;;;;;;;;;;;18.30;80.90;;;;;;4003799;29;19939;-46
2023/07/06 05:21:24;;;;;;;;;;;18.40;81.10;;;;;;4014518;29;19931;-46
2023/07/06 05:24:05;;;;;;;;;;;18.40;81.10;;;;;;4000070;29;19931;-47
2023/07/06 05:26:46;;;;;;;;;;;18.40;81.10;;;;;;4006541;29;19935;-47
2023/07/06 05:29:26;;;;;;;;;;;18.40;81.20;;;;;;4016503;29;19931;-50
2023/07/06 05:32:08;;;;;;;;;;;18.40;81.10;;;;;;4014984;29;20300;-49
2023/07/06 05:34:50;;;;;;;;;;;18.40;82.00;;;;;;4014144;29;19931;-49
2023/07/06 05:37:31;;;;;;;;;;;18.50;82.00;;;;;;3998318;29;19935;-48
2023/07/06 05:40:16;;;;;;;;;;;18.50;81.00;;;;;;4001269;29;19931;-48
2023/07/06 05:42:57;;;;;;;;;;;18.60;81.00;;;;;;4012943;29;20825;-53
2023/07/06 05:45:39;;;;;;;;;;;18.60;81.00;;;;;;3998528;29;19935;-51
2023/07/06 05:48:20;;;;;;;;;;;18.60;81.80;;;;;;3999746;29;19931;-52
2023/07/06 05:51:03;;;;;;;;;;;18.70;80.80;;;;;;4014203;29;20019;-50
2023/07/06 05:53:43;;;;;;;;;;;18.80;80.60;;;;;;4013190;29;19944;-48
2023/07/06 05:56:24;;;;;;;;;;;18.80;80.40;;;;;;4012664;29;20072;-53
2023/07/06 05:59:05;;;;;;;;;;;18.80;80.20;;;;;;3987290;29;20268;-45
2023/07/06 06:01:45;;;;;;;;;;;18.80;80.20;;;;;;3998895;29;19931;-47
2023/07/06 06:04:26;;;;;;;;;;;18.90;81.00;;;;;;3998790;29;20075;-49
2023/07/06 06:07:09;;;;;;;;;;;18.90;80.20;;;;;;3998974;29;19951;-51
2023/07/06 06:09:49;;;;;;;;;;;18.90;80.20;;;;;;3987554;29;20004;-47
2023/07/06 06:12:31;;;;;;;;;;;19.00;80.20;;;;;;3985438;29;20391;-45
2023/07/06 06:15:14;;;;;;;;;;;19.00;80.00;;;;;;3998600;29;19931;-49
2023/07/06 06:17:56;;;;;;;;;;;19.10;80.00;;;;;;4010692;29;19931;-50
2023/07/06 06:20:37;;;;;;;;;;;19.20;80.00;;;;;;4013535;29;19931;-46
2023/07/06 06:23:20;;;;;;;;;;;19.20;79.90;;;;;;4013428;29;19935;-46
2023/07/06 06:26:01;;;;;;;;;;;19.30;79.90;;;;;;4002136;29;19931;-48
2023/07/06 06:28:41;;;;;;;;;;;19.40;79.80;;;;;;4012053;29;20383;-46
2023/07/06 06:31:23;;;;;;;;;;;19.40;79.60;;;;;;4013965;29;19943;-50
2023/07/06 06:34:04;;;;;;;;;;;19.50;79.30;;;;;;4012641;29;19971;-48
2023/07/06 06:36:44;;;;;;;;;;;19.50;79.80;;;;;;4008351;29;19935;-49
2023/07/06 06:39:26;;;;;;;;;;;19.60;78.90;;;;;;4006921;29;20007;-50
2023/07/06 06:42:08;;;;;;;;;;;19.60;78.80;;;;;;4012305;29;19935;-49
2023/07/06 06:44:52;;;;;;;;;;;19.70;79.00;;;;;;4005085;29;19988;-52
2023/07/06 06:47:33;;;;;;;;;;;19.80;78.80;;;;;;3997350;29;19964;-49
2023/07/06 06:50:16;;;;;;;;;;;19.80;78.40;;;;;;4010809;29;20064;-48
2023/07/06 06:52:57;;;;;;;;;;;19.90;78.00;;;;;;4011614;29;19964;-49
2023/07/06 06:55:39;;;;;;;;;;;19.90;77.80;;;;;;3997984;29;20064;-48
2023/07/06 06:58:20;;;;;;;;;;;20.10;77.80;;;;;;4028855;29;19931;-50
2023/07/06 07:01:03;;;;;;;;;;;20.10;77.50;;;;;;4013555;29;19931;-48
2023/07/06 07:03:45;;;;;;;;;;;20.10;77.60;;;;;;4012266;29;20299;-53
2023/07/06 07:06:26;;;;;;;;;;;20.20;78.60;;;;;;4012828;29;19935;-51
2023/07/06 07:09:09;;;;;;;;;;;20.30;77.40;;;;;;4012999;29;19983;-49
2023/07/06 07:11:51;;;;;;;;;;;20.30;77.00;;;;;;4013007;29;19935;-50
2023/07/06 07:14:32;;;;;;;;;;;20.30;77.80;;;;;;4012768;29;20303;-51
2023/07/06 07:17:14;;;;;;;;;;;20.40;77.00;;;;;;4012723;29;20415;-52
2023/07/06 07:19:55;;;;;;;;;;;20.40;76.90;;;;;;4013162;29;19931;-51
2023/07/06 07:22:35;;;;;;;;;;;20.50;76.80;;;;;;3996841;29;19936;-50
2023/07/06 07:25:17;;;;;;;;;;;20.50;76.60;;;;;;3996044;29;19993;-49
2023/07/06 07:27:59;;;;;;;;;;;20.50;76.70;;;;;;4007641;29;20048;-51
2023/07/06 07:30:40;;;;;;;;;;;20.50;77.60;;;;;;4012433;29;19931;-50
2023/07/06 07:33:21;;;;;;;;;;;20.50;76.30;;;;;;4001488;29;19931;-49
2023/07/06 07:36:03;;;;;;;;;;;20.60;76.40;;;;;;3997681;29;19935;-49
2023/07/06 07:38:44;;;;;;;;;;;20.60;77.20;;;;;;4005931;29;19931;-48
2023/07/06 07:41:25;;;;;;;;;;;20.60;76.20;;;;;;4011484;29;20068;-50
2023/07/06 07:44:08;;;;;;;;;;;20.60;76.10;;;;;;4012401;29;20497;-50
2023/07/06 07:46:49;;;;;;;;;;;20.70;76.90;;;;;;4001067;29;19934;-50
2023/07/06 07:49:30;;;;;;;;;;;20.70;76.20;;;;;;4011786;29;19959;-48
2023/07/06 07:52:12;;;;;;;;;;;20.70;76.20;;;;;;4010075;29;19931;-49
2023/07/06 07:54:53;;;;;;;;;;;20.70;76.30;;;;;;4004366;29;20395;-49
2023/07/06 07:57:34;;;;;;;;;;;20.70;76.40;;;;;;4005879;29;19935;-49
2023/07/06 08:00:16;;;;;;;;;;;20.70;76.20;;;;;;4012451;29;20015;-48
2023/07/06 08:02:57;;;;;;;;;;;20.70;76.00;;;;;;4011368;29;20480;-48
2023/07/06 08:05:39;;;;;;;;;;;20.70;75.90;;;;;;3997786;29;19963;-48
2023/07/06 08:08:22;;;;;;;;;;;20.70;75.70;;;;;;3997967;29;19939;-46
2023/07/06 08:11:04;;;;;;;;;;;20.70;76.70;;;;;;4002622;29;19955;-48
2023/07/06 08:13:45;;;;;;;;;;;20.70;75.70;;;;;;4007100;29;19935;-46
2023/07/06 08:16:28;;;;;;;;;;;20.70;75.70;;;;;;4011321;29;19940;-46
2023/07/06 08:19:09;;;;;;;;;;;20.70;75.60;;;;;;4011751;29;20288;-49
2023/07/06 08:22:04;;;;;;;;;;;20.70;75.40;;;;;;4010969;29;19967;-50
2023/07/06 08:24:49;;;;;;;;;;;20.70;75.00;;;;;;4011543;29;19931;-49
2023/07/06 08:27:31;;;;;;;;;;;20.60;74.80;;;;;;4011510;29;19940;-50
2023/07/06 08:30:12;;;;;;;;;;;20.70;74.70;;;;;;3999781;29;20399;-51
2023/07/06 08:32:55;;;;;;;;;;;20.70;74.40;;;;;;4011557;29;19932;-52
2023/07/06 08:35:40;;;;;;;;;;;20.70;74.20;;;;;;4010237;29;20067;-48
2023/07/06 08:38:22;;;;;;;;;;;20.70;74.00;;;;;;3996808;29;20415;-48
2023/07/06 08:41:03;;;;;;;;;;;20.70;73.70;;;;;;4008152;29;20268;-48
2023/07/06 08:43:45;;;;;;;;;;;20.60;73.50;;;;;;4012315;29;20040;-49
2023/07/06 08:46:29;;;;;;;;;;;20.70;74.20;;;;;;4011818;29;19988;-51
2023/07/06 08:49:16;;;;;;;;;;;20.70;73.20;;;;;;4000843;29;19941;-48
2023/07/06 08:52:02;;;;;;;;;;;20.70;73.10;;;;;;4011744;29;20299;-48
2023/07/06 08:54:47;;;;;;;;;;;20.70;73.20;;;;;;4008878;29;19975;-52
2023/07/06 08:57:30;;;;;;;;;;;20.70;73.00;;;;;;4001115;29;19941;-52
2023/07/06 09:00:18;;;;;;;;;;;20.70;72.80;;;;;;3996871;29;19931;-49
2023/07/06 09:03:03;;;;;;;;;;;20.70;73.70;;;;;;4002420;29;19935;-49
2023/07/06 09:05:47;;;;;;;;;;;20.60;72.80;;;;;;4011166;29;19972;-48
2023/07/06 09:08:29;;;;;;;;;;;20.60;72.60;;;;;;4011414;29;19935;-50
2023/07/06 09:11:10;;;;;;;;;;;20.60;73.50;;;;;;4000296;29;19934;-48
2023/07/06 09:14:06;;;;;;;;;;;20.60;72.60;;;;;;4011718;29;20070;-46
2023/07/06 09:16:48;;;;;;;;;;;20.60;72.70;;;;;;4009601;29;19987;-45
2023/07/06 09:19:33;;;;;;;;;;;20.50;72.70;;;;;;4005232;29;20403;-47
2023/07/06 09:22:15;;;;;;;;;;;20.50;72.80;;;;;;4001965;29;20296;-46
2023/07/06 09:25:00;;;;;;;;;;;20.50;72.90;;;;;;4007591;29;20333;-45
2023/07/06 09:27:40;;;;;;;;;;;20.40;72.90;;;;;;3996343;29;19931;-47
2023/07/06 09:30:29;;;;;;;;;;;20.40;73.10;;;;;;3999333;29;20080;-48
2023/07/06 09:33:16;;;;;;;;;;;20.40;73.30;;;;;;3988040;29;20060;-48
2023/07/06 09:35:58;;;;;;;;;;;20.40;73.50;;;;;;4010973;29;20406;-49
2023/07/06 09:38:45;;;;;;;;;;;20.40;73.70;;;;;;4014902;29;20382;-49
2023/07/06 09:41:28;;;;;;;;;;;20.40;73.80;;;;;;4013575;29;19935;-48
2023/07/06 09:44:10;;;;;;;;;;;20.40;73.80;;;;;;4008863;29;19935;-52
2023/07/06 09:46:51;;;;;;;;;;;20.30;73.70;;;;;;3999166;29;19951;-49
2023/07/06 09:49:36;;;;;;;;;;;20.30;73.80;;;;;;4002870;29;19979;-49
2023/07/06 09:52:17;;;;;;;;;;;20.30;73.80;;;;;;4008227;29;20507;-50
2023/07/06 09:55:01;;;;;;;;;;;20.30;74.70;;;;;;4012413;29;19939;-50
2023/07/06 09:57:44;;;;;;;;;;;20.40;73.90;;;;;;3998591;29;19979;-48
2023/07/06 10:00:29;;;;;;;;;;;20.40;74.90;;;;;;4006452;29;20284;-49
2023/07/06 10:03:13;;;;;;;;;;;20.40;73.90;;;;;;4013492;29;20298;-48
2023/07/06 10:05:57;;;;;;;;;;;20.40;74.70;;;;;;4013111;29;19944;-48
2023/07/06 10:08:40;;;;;;;;;;;20.50;73.90;;;;;;4002330;29;20038;-50
2023/07/06 10:11:29;;;;;;;;;;;20.50;73.90;;;;;;3999225;29;19935;-48
2023/07/06 10:14:14;;;;;;;;;;;20.50;73.70;;;;;;3998799;29;19944;-50
2023/07/06 10:17:11;;;;;;;;;;;20.50;73.90;;;;;;3999809;29;20058;-49
2023/07/06 10:19:55;;;;;;;;;;;20.50;73.90;;;;;;3997829;29;20463;-49
2023/07/06 10:22:40;;;;;;;;;;;20.50;73.90;;;;;;3987270;29;19931;-52
2023/07/06 10:25:25;;;;;;;;;;;20.50;73.90;;;;;;3998954;29;20000;-50
2023/07/06 10:28:11;;;;;;;;;;;20.60;73.90;;;;;;4001183;29;20395;-50
2023/07/06 10:30:53;;;;;;;;;;;20.60;73.60;;;;;;4002386;29;20391;-48
2023/07/06 10:33:37;;;;;;;;;;;20.60;73.20;;;;;;4013561;29;20080;-46
2023/07/06 10:36:17;;;;;;;;;;;20.60;73.10;;;;;;4012420;29;19979;-50
2023/07/06 10:38:58;;;;;;;;;;;20.60;72.90;;;;;;3998328;29;19931;-51
2023/07/06 10:41:42;;;;;;;;;;;20.70;72.70;;;;;;3998486;29;19932;-48
2023/07/06 10:44:46;;;;;;;;;;;20.70;72.50;;;;;;3998609;29;19952;-50
2023/07/06 10:47:41;;;;;;;;;;;20.70;72.10;;;;;;3997120;29;20448;-54
2023/07/06 10:50:26;;;;;;;;;;;20.70;73.10;;;;;;3997746;29;19946;-50
2023/07/06 10:53:17;;;;;;;;;;;20.70;72.00;;;;;;4000211;29;20510;-50
2023/07/06 10:56:15;;;;;;;;;;;20.70;72.10;;;;;;4010619;29;19934;-50
2023/07/06 10:58:57;;;;;;;;;;;20.70;71.20;;;;;;4000934;29;19931;-51
2023/07/06 11:01:40;;;;;;;;;;;20.70;70.90;;;;;;4010986;29;20410;-48
2023/07/06 11:04:40;;;;;;;;;;;20.80;71.00;;;;;;4012365;29;19930;-50
2023/07/06 11:07:41;;;;;;;;;;;20.80;70.50;;;;;;4002156;29;19935;-51
2023/07/06 11:10:24;;;;;;;;;;;20.80;70.10;;;;;;4009353;29;19983;-46
2023/07/06 11:13:19;;;;;;;;;;;20.90;69.90;;;;;;3997389;29;19931;-46
2023/07/06 11:16:04;;;;;;;;;;;21.00;69.50;;;;;;4006774;29;19946;-46
2023/07/06 11:18:49;;;;;;;;;;;21.00;69.30;;;;;;4013396;29;19931;-47
2023/07/06 11:21:31;;;;;;;;;;;21.00;68.90;;;;;;4012728;29;20387;-47
2023/07/06 11:24:16;;;;;;;;;;;21.10;68.70;;;;;;4012509;29;19956;-46
2023/07/06 11:26:58;;;;;;;;;;;21.10;68.30;;;;;;4012599;29;20061;-45
2023/07/06 11:29:38;;;;;;;;;;;21.20;68.30;;;;;;4012243;29;20063;-47
2023/07/06 11:32:21;;;;;;;;;;;21.20;67.90;;;;;;4012348;29;19935;-46
2023/07/06 11:35:24;;;;;;;;;;;21.20;67.30;;;;;;4011138;29;20011;-51
2023/07/06 11:38:12;;;;;;;;;;;21.30;67.50;;;;;;4011383;29;19935;-50
2023/07/06 11:41:05;;;;;;;;;;;21.30;67.00;;;;;;4012520;29;19931;-50
2023/07/06 11:43:59;;;;;;;;;;;21.30;67.10;;;;;;4011723;29;20327;-49
2023/07/06 11:46:44;;;;;;;;;;;21.30;67.10;;;;;;4012165;29;19943;-49
2023/07/06 11:49:32;;;;;;;;;;;21.30;66.90;;;;;;4012637;29;20391;-49
2023/07/06 11:52:16;;;;;;;;;;;21.40;67.00;;;;;;3996270;29;19935;-49
2023/07/06 11:55:07;;;;;;;;;;;21.40;65.70;;;;;;3998828;29;20036;-46
2023/07/06 11:58:04;;;;;;;;;;;21.40;64.80;;;;;;4012473;29;19979;-47
2023/07/06 12:00:52;;;;;;;;;;;21.50;64.60;;;;;;4011429;29;19935;-48
2023/07/06 12:03:34;;;;;;;;;;;21.50;64.20;;;;;;4011534;29;20390;-46
2023/07/06 12:06:17;;;;;;;;;;;21.50;63.40;;;;;;4011636;29;19951;-47
2023/07/06 12:09:02;;;;;;;;;;;21.50;63.30;;;;;;4012253;29;20406;-47
2023/07/06 12:11:42;;;;;;;;;;;21.50;63.40;;;;;;4012067;29;19987;-46
2023/07/06 12:14:23;;;;;;;;;;;21.50;63.50;;;;;;4008201;29;19934;-47
2023/07/06 12:17:06;;;;;;;;;;;21.50;63.40;;;;;;3997069;29;19935;-47
2023/07/06 12:19:47;;;;;;;;;;;21.50;63.40;;;;;;3996627;29;19931;-45
2023/07/06 12:22:27;;;;;;;;;;;21.50;63.30;;;;;;3996306;29;20485;-47
2023/07/06 12:25:17;;;;;;;;;;;21.50;63.30;;;;;;3998094;29;20399;-48
2023/07/06 12:27:58;;;;;;;;;;;21.50;63.40;;;;;;4011315;29;19935;-47
2023/07/06 12:30:39;;;;;;;;;;;21.50;63.30;;;;;;4012186;29;19931;-47
2023/07/06 12:33:20;;;;;;;;;;;21.50;63.40;;;;;;4011776;29;19935;-46
2023/07/06 12:36:02;;;;;;;;;;;21.50;63.30;;;;;;4011689;29;20064;-50
2023/07/06 12:38:46;;;;;;;;;;;21.50;63.20;;;;;;4011748;29;19931;-49
2023/07/06 12:41:33;;;;;;;;;;;21.50;63.10;;;;;;4010754;29;19931;-47
2023/07/06 12:44:17;;;;;;;;;;;21.50;63.00;;;;;;3996781;29;19980;-48
2023/07/06 12:47:02;;;;;;;;;;;21.60;63.00;;;;;;4010911;29;20371;-46
2023/07/06 12:49:44;;;;;;;;;;;21.60;63.80;;;;;;4011713;29;19959;-47
2023/07/06 12:52:26;;;;;;;;;;;21.60;62.70;;;;;;4011679;29;20675;-49
2023/07/06 12:55:13;;;;;;;;;;;21.50;62.70;;;;;;4011445;29;20370;-46
2023/07/06 12:57:55;;;;;;;;;;;21.60;62.80;;;;;;4000438;29;19932;-46
2023/07/06 13:00:35;;;;;;;;;;;21.60;62.80;;;;;;3995151;29;19935;-45
2023/07/06 13:03:16;;;;;;;;;;;21.50;62.80;;;;;;4013360;29;19975;-46
2023/07/06 13:05:57;;;;;;;;;;;21.60;62.90;;;;;;4014315;29;19996;-46
2023/07/06 13:08:38;;;;;;;;;;;21.60;63.00;;;;;;4011652;29;20272;-47
2023/07/06 13:11:21;;;;;;;;;;;21.60;63.00;;;;;;4014624;29;19965;-46
2023/07/06 13:14:03;;;;;;;;;;;21.60;63.10;;;;;;4013932;29;20084;-46
2023/07/06 13:16:45;;;;;;;;;;;21.60;63.20;;;;;;4014255;29;20391;-47
2023/07/06 13:19:26;;;;;;;;;;;21.60;63.30;;;;;;4014292;29;19962;-51
2023/07/06 13:22:09;;;;;;;;;;;21.70;63.20;;;;;;4013149;29;19935;-48
2023/07/06 13:24:50;;;;;;;;;;;21.70;63.20;;;;;;3998909;29;19935;-48
2023/07/06 13:27:32;;;;;;;;;;;21.70;63.30;;;;;;4009928;29;19951;-49
2023/07/06 13:30:16;;;;;;;;;;;21.70;64.10;;;;;;3999054;29;19935;-47
2023/07/06 13:32:57;;;;;;;;;;;21.70;63.10;;;;;;4013035;29;19947;-46
2023/07/06 13:35:38;;;;;;;;;;;21.80;62.20;;;;;;4014000;29;19991;-50
2023/07/06 13:38:18;;;;;;;;;;;21.80;62.60;;;;;;4002021;29;19935;-46
2023/07/06 13:41:00;;;;;;;;;;;21.80;62.50;;;;;;3998029;29;20300;-51
2023/07/06 13:43:40;;;;;;;;;;;21.80;62.70;;;;;;3998463;29;20391;-48
2023/07/06 13:46:23;;;;;;;;;;;21.90;62.40;;;;;;3998008;29;19931;-48
2023/07/06 13:49:04;;;;;;;;;;;21.90;62.40;;;;;;4011103;29;19934;-46
2023/07/06 13:51:45;;;;;;;;;;;21.90;62.50;;;;;;4014127;29;19931;-49
2023/07/06 13:54:26;;;;;;;;;;;21.90;62.50;;;;;;4014184;29;20400;-46
2023/07/06 13:57:07;;;;;;;;;;;22.00;63.30;;;;;;4013214;29;20019;-47
2023/07/06 13:59:48;;;;;;;;;;;22.00;62.40;;;;;;4013337;29;20387;-48
2023/07/06 14:02:32;;;;;;;;;;;22.00;62.10;;;;;;4013062;29;19950;-46
2023/07/06 14:05:13;;;;;;;;;;;22.00;62.20;;;;;;4013388;29;19931;-46
2023/07/06 14:07:54;;;;;;;;;;;22.00;62.30;;;;;;4012517;29;19931;-47
2023/07/06 14:10:35;;;;;;;;;;;22.00;62.10;;;;;;3998414;29;19932;-48
2023/07/06 14:13:17;;;;;;;;;;;22.10;61.90;;;;;;3998076;29;20440;-46
2023/07/06 14:15:58;;;;;;;;;;;22.10;62.10;;;;;;4006793;29;20388;-46
2023/07/06 14:18:41;;;;;;;;;;;22.10;62.00;;;;;;4010400;29;19991;-50
2023/07/06 14:21:22;;;;;;;;;;;22.10;61.50;;;;;;4012980;29;20019;-50
2023/07/06 14:24:03;;;;;;;;;;;22.20;61.90;;;;;;4012799;29;20425;-49
2023/07/06 14:26:44;;;;;;;;;;;22.20;62.00;;;;;;4012439;29;19934;-51
2023/07/06 14:29:27;;;;;;;;;;;22.20;62.90;;;;;;4012997;29;19931;-49
2023/07/06 14:32:08;;;;;;;;;;;22.20;61.90;;;;;;4014147;29;19984;-52
2023/07/06 14:34:50;;;;;;;;;;;22.30;61.70;;;;;;4013855;29;20328;-50
2023/07/06 14:37:31;;;;;;;;;;;22.30;61.30;;;;;;4013179;29;19931;-50
2023/07/06 14:40:12;;;;;;;;;;;22.20;60.90;;;;;;4014261;29;19931;-47
2023/07/06 14:42:53;;;;;;;;;;;22.30;60.70;;;;;;4013826;29;20015;-49
2023/07/06 14:45:34;;;;;;;;;;;22.30;60.50;;;;;;4013751;29;20296;-51
2023/07/06 14:48:15;;;;;;;;;;;22.30;60.40;;;;;;3998272;29;19932;-50
2023/07/06 14:51:03;;;;;;;;;;;22.30;60.30;;;;;;3998388;29;20424;-51
2023/07/06 14:53:44;;;;;;;;;;;22.30;61.10;;;;;;3998487;29;19936;-54
2023/07/06 14:56:25;;;;;;;;;;;22.30;60.10;;;;;;3998052;29;20395;-54
2023/07/06 14:59:06;;;;;;;;;;;22.30;60.10;;;;;;3998070;29;19931;-51
2023/07/06 15:01:47;;;;;;;;;;;22.30;60.00;;;;;;3997796;29;19931;-50
2023/07/06 15:04:28;;;;;;;;;;;22.30;60.00;;;;;;4012055;29;19931;-53
2023/07/06 15:07:10;;;;;;;;;;;22.20;60.00;;;;;;4012664;29;20397;-51
2023/07/06 15:09:51;;;;;;;;;;;22.30;60.10;;;;;;4013208;29;19931;-48
2023/07/06 15:12:32;;;;;;;;;;;22.20;60.00;;;;;;4013304;29;19931;-52
2023/07/06 15:15:13;;;;;;;;;;;22.20;60.00;;;;;;4012808;29;19956;-51
2023/07/06 15:17:53;;;;;;;;;;;22.20;60.10;;;;;;4013365;29;19932;-49
2023/07/06 15:20:34;;;;;;;;;;;22.20;60.20;;;;;;4013676;29;20065;-48
2023/07/06 15:23:16;;;;;;;;;;;22.20;60.20;;;;;;4013596;29;19931;-49
2023/07/06 15:25:57;;;;;;;;;;;22.20;60.30;;;;;;4012644;29;20272;-48
2023/07/06 15:28:39;;;;;;;;;;;22.20;60.30;;;;;;4013464;29;20643;-52
2023/07/06 15:31:23;;;;;;;;;;;22.10;60.30;;;;;;4013291;29;19972;-52
2023/07/06 15:34:04;;;;;;;;;;;22.10;60.30;;;;;;4013047;29;20387;-48
2023/07/06 15:36:45;;;;;;;;;;;22.10;60.40;;;;;;4012633;29;19931;-51
2023/07/06 15:39:27;;;;;;;;;;;22.10;60.40;;;;;;4013357;29;20080;-50
2023/07/06 15:42:07;;;;;;;;;;;22.10;60.40;;;;;;4013515;29;20012;-49
2023/07/06 15:44:48;;;;;;;;;;;22.10;60.60;;;;;;3998086;29;20121;-47
2023/07/06 15:47:29;;;;;;;;;;;22.00;60.60;;;;;;3997744;29;22605;-50